createdAt,value
2016-11-11T00:00:35.224Z,0
2016-11-11T00:01:16.798Z,0
2016-11-11T00:01:58.485Z,0
2016-11-11T00:02:40.149Z,0
2016-11-11T00:03:21.678Z,0
2016-11-11T00:04:03.384Z,0
2016-11-11T00:04:45.105Z,0
2016-11-11T00:05:26.772Z,0
2016-11-11T00:07:42.137Z,0
2016-11-11T00:08:23.783Z,0
2016-11-11T00:10:23.932Z,0
2016-11-11T00:11:05.617Z,0
2016-11-11T00:11:47.336Z,0
2016-11-11T00:12:29.059Z,0
2016-11-11T00:13:10.678Z,0
2016-11-11T00:15:26.025Z,0
2016-11-11T00:16:07.829Z,0
2016-11-11T00:16:49.478Z,0
2016-11-11T00:17:31.131Z,0
2016-11-11T00:19:31.239Z,0
2016-11-11T00:21:46.741Z,0
2016-11-11T00:22:28.388Z,0
2016-11-11T00:23:10.091Z,0
2016-11-11T00:23:51.766Z,0
2016-11-11T00:25:51.832Z,0
2016-11-11T00:26:33.479Z,0
2016-11-11T00:28:33.540Z,0
2016-11-11T00:29:15.266Z,0
2016-11-11T00:29:57.024Z,0
2016-11-11T00:30:38.760Z,0
2016-11-11T00:31:20.435Z,0
2016-11-11T00:32:02.120Z,0
2016-11-11T00:32:43.857Z,0
2016-11-11T00:33:25.550Z,0
2016-11-11T00:34:07.330Z,0
2016-11-11T00:36:38.460Z,0
2016-11-11T00:37:20.157Z,0
2016-11-11T00:38:01.877Z,0
2016-11-11T00:38:43.561Z,0
2016-11-11T00:39:25.205Z,0
2016-11-11T00:40:06.862Z,0
2016-11-11T00:42:43.268Z,0
2016-11-11T00:43:24.957Z,0
2016-11-11T00:44:06.631Z,0
2016-11-11T00:44:48.311Z,0
2016-11-11T00:45:30.042Z,0
2016-11-11T00:46:11.744Z,0
2016-11-11T00:46:53.389Z,0
2016-11-11T00:47:35.121Z,0
2016-11-11T00:48:16.826Z,0
2016-11-11T00:48:58.543Z,0
2016-11-11T00:49:40.257Z,0
2016-11-11T00:50:21.924Z,0
2016-11-11T00:51:03.630Z,0
2016-11-11T00:51:45.303Z,0
2016-11-11T00:52:26.974Z,0
2016-11-11T00:53:08.613Z,0
2016-11-11T00:55:39.499Z,0
2016-11-11T00:57:54.792Z,0
2016-11-11T00:58:36.339Z,0
2016-11-11T00:59:17.987Z,0
2016-11-11T01:01:37.776Z,0
2016-11-11T01:02:18.321Z,0
2016-11-11T01:02:58.868Z,0
2016-11-11T01:03:39.411Z,0
2016-11-11T01:04:19.952Z,0
2016-11-11T01:05:00.497Z,0
2016-11-11T01:05:41.041Z,0
2016-11-11T01:06:21.588Z,0
2016-11-11T01:07:02.134Z,0
2016-11-11T01:07:42.678Z,0
2016-11-11T01:08:23.222Z,0
2016-11-11T01:09:03.767Z,0
2016-11-11T01:09:44.311Z,0
2016-11-11T01:10:24.853Z,0
2016-11-11T01:11:05.396Z,0
2016-11-11T01:11:45.938Z,0
2016-11-11T01:12:26.481Z,0
2016-11-11T01:13:07.021Z,0
2016-11-11T01:13:47.564Z,0
2016-11-11T01:14:28.110Z,0
2016-11-11T01:15:08.649Z,0
2016-11-11T01:15:49.191Z,0
2016-11-11T01:16:29.736Z,0
2016-11-11T01:17:10.284Z,0
2016-11-11T01:17:50.832Z,0
2016-11-11T01:18:31.376Z,0
2016-11-11T01:19:11.917Z,0
2016-11-11T01:19:52.463Z,0
2016-11-11T01:20:33.009Z,0
2016-11-11T01:21:13.555Z,0
2016-11-11T01:21:54.101Z,0
2016-11-11T01:22:34.637Z,0
2016-11-11T01:23:15.179Z,0
2016-11-11T01:23:55.724Z,0
2016-11-11T01:24:36.275Z,0
2016-11-11T01:25:16.810Z,0
2016-11-11T01:25:57.358Z,0
2016-11-11T01:26:37.902Z,0
2016-11-11T01:27:18.445Z,0
2016-11-11T01:27:58.995Z,0
2016-11-11T01:28:39.530Z,0
2016-11-11T01:29:20.084Z,0
2016-11-11T01:30:00.628Z,0
2016-11-11T01:30:41.173Z,0
2016-11-11T01:31:21.716Z,0
2016-11-11T01:32:02.262Z,0
2016-11-11T01:32:42.809Z,0
2016-11-11T01:33:23.355Z,0
2016-11-11T01:34:03.898Z,0
2016-11-11T01:34:44.444Z,0
2016-11-11T01:35:24.989Z,0
2016-11-11T01:36:05.535Z,0
2016-11-11T01:36:46.074Z,0
2016-11-11T01:37:26.618Z,0
2016-11-11T01:38:07.193Z,0
2016-11-11T01:38:47.738Z,0
2016-11-11T01:39:28.282Z,0
2016-11-11T01:40:08.827Z,0
2016-11-11T01:40:49.377Z,0
2016-11-11T01:41:29.919Z,0
2016-11-11T01:42:10.464Z,0
2016-11-11T01:42:51.008Z,0
2016-11-11T01:43:31.553Z,0
2016-11-11T01:44:12.094Z,0
2016-11-11T01:44:52.646Z,0
2016-11-11T01:45:33.190Z,0
2016-11-11T01:46:13.736Z,0
2016-11-11T01:46:54.276Z,0
2016-11-11T01:47:34.828Z,0
2016-11-11T01:48:15.378Z,0
2016-11-11T01:48:55.951Z,0
2016-11-11T01:49:36.495Z,0
2016-11-11T01:50:17.040Z,0
2016-11-11T01:50:57.586Z,0
2016-11-11T01:51:38.132Z,0
2016-11-11T01:52:18.677Z,0
2016-11-11T01:52:59.226Z,0
2016-11-11T01:53:39.776Z,0
2016-11-11T01:54:20.320Z,0
2016-11-11T01:55:00.911Z,0
2016-11-11T01:55:41.456Z,0
2016-11-11T01:56:21.998Z,0
2016-11-11T01:57:02.543Z,0
2016-11-11T01:57:43.082Z,0
2016-11-11T01:58:23.626Z,0
2016-11-11T01:59:04.172Z,0
2016-11-11T01:59:44.709Z,0
2016-11-11T02:00:25.253Z,0
2016-11-11T02:01:05.801Z,0
2016-11-11T02:01:46.345Z,0
2016-11-11T02:02:26.889Z,0
2016-11-11T02:03:07.436Z,0
2016-11-11T02:03:47.987Z,0
2016-11-11T02:04:28.526Z,0
2016-11-11T02:05:09.071Z,0
2016-11-11T02:05:49.616Z,0
2016-11-11T02:06:30.165Z,0
2016-11-11T02:07:10.708Z,0
2016-11-11T02:07:51.252Z,0
2016-11-11T02:08:31.794Z,0
2016-11-11T02:09:12.323Z,0
2016-11-11T02:09:52.865Z,0
2016-11-11T02:10:33.406Z,0
2016-11-11T02:11:13.948Z,0
2016-11-11T02:11:54.490Z,0
2016-11-11T02:12:35.038Z,0
2016-11-11T02:13:15.583Z,0
2016-11-11T02:13:56.132Z,0
2016-11-11T02:14:36.679Z,0
2016-11-11T02:15:17.274Z,0
2016-11-11T02:15:57.820Z,0
2016-11-11T02:16:38.365Z,0
2016-11-11T02:17:18.916Z,0
2016-11-11T02:17:59.463Z,0
2016-11-11T02:18:40.005Z,0
2016-11-11T02:19:20.553Z,0
2016-11-11T02:20:01.105Z,0
2016-11-11T02:20:41.654Z,0
2016-11-11T02:21:22.198Z,0
2016-11-11T02:22:02.746Z,0
2016-11-11T02:22:43.286Z,0
2016-11-11T02:23:23.835Z,0
2016-11-11T02:24:04.384Z,0
2016-11-11T02:24:44.932Z,0
2016-11-11T02:25:25.478Z,0
2016-11-11T02:26:06.023Z,0
2016-11-11T02:26:46.548Z,0
2016-11-11T02:27:27.095Z,0
2016-11-11T02:28:07.633Z,0
2016-11-11T02:28:48.178Z,0
2016-11-11T02:29:28.726Z,0
2016-11-11T02:30:09.278Z,0
2016-11-11T02:30:49.815Z,0
2016-11-11T02:31:30.362Z,0
2016-11-11T02:32:10.915Z,0
2016-11-11T02:32:51.444Z,0
2016-11-11T02:33:32.006Z,0
2016-11-11T02:34:12.531Z,0
2016-11-11T02:34:53.076Z,0
2016-11-11T02:35:33.623Z,0
2016-11-11T02:36:14.163Z,0
2016-11-11T02:36:54.706Z,0
2016-11-11T02:37:35.247Z,0
2016-11-11T02:38:15.790Z,0
2016-11-11T02:38:56.337Z,0
2016-11-11T02:39:36.884Z,0
2016-11-11T02:40:17.431Z,0
2016-11-11T02:40:57.973Z,0
2016-11-11T02:41:38.507Z,0
2016-11-11T02:42:19.056Z,0
2016-11-11T02:42:59.615Z,0
2016-11-11T02:43:40.161Z,0
2016-11-11T02:44:20.712Z,0
2016-11-11T02:45:01.261Z,0
2016-11-11T02:45:41.809Z,0
2016-11-11T02:46:22.359Z,0
2016-11-11T02:47:02.905Z,0
2016-11-11T02:47:43.450Z,0
2016-11-11T02:48:23.991Z,0
2016-11-11T02:49:04.541Z,0
2016-11-11T02:49:45.091Z,0
2016-11-11T02:50:25.630Z,0
2016-11-11T02:51:06.172Z,0
2016-11-11T02:51:46.704Z,0
2016-11-11T02:52:27.251Z,0
2016-11-11T02:53:07.799Z,0
2016-11-11T02:53:48.344Z,0
2016-11-11T02:54:28.887Z,0
2016-11-11T02:55:09.434Z,0
2016-11-11T02:55:49.981Z,0
2016-11-11T02:56:30.525Z,0
2016-11-11T02:57:11.069Z,0
2016-11-11T02:57:51.618Z,0
2016-11-11T02:58:32.150Z,0
2016-11-11T02:59:12.686Z,0
2016-11-11T02:59:53.229Z,0
2016-11-11T03:00:33.770Z,0
2016-11-11T03:01:14.316Z,0
2016-11-11T03:01:54.857Z,0
2016-11-11T03:02:35.400Z,0
2016-11-11T03:03:15.945Z,0
2016-11-11T03:03:56.487Z,0
2016-11-11T03:04:37.028Z,0
2016-11-11T03:05:17.576Z,0
2016-11-11T03:05:58.123Z,0
2016-11-11T03:06:38.669Z,0
2016-11-11T03:07:19.210Z,0
2016-11-11T03:07:59.757Z,0
2016-11-11T03:08:40.302Z,0
2016-11-11T03:09:20.845Z,0
2016-11-11T03:10:01.391Z,0
2016-11-11T03:10:41.934Z,0
2016-11-11T03:11:22.475Z,0
2016-11-11T03:12:03.024Z,0
2016-11-11T03:12:43.572Z,0
2016-11-11T03:13:24.115Z,0
2016-11-11T03:14:04.662Z,0
2016-11-11T03:14:45.212Z,0
2016-11-11T03:15:25.756Z,0
2016-11-11T03:16:06.299Z,0
2016-11-11T03:16:46.840Z,0
2016-11-11T03:17:27.387Z,0
2016-11-11T03:18:07.926Z,0
2016-11-11T03:18:48.468Z,0
2016-11-11T03:19:29.010Z,0
2016-11-11T03:20:09.555Z,0
2016-11-11T03:20:50.120Z,0
2016-11-11T03:21:30.661Z,0
2016-11-11T03:22:11.200Z,0
2016-11-11T03:22:51.736Z,0
2016-11-11T03:23:32.289Z,0
2016-11-11T03:24:12.831Z,0
2016-11-11T03:24:53.384Z,0
2016-11-11T03:25:33.924Z,0
2016-11-11T03:26:14.473Z,0
2016-11-11T03:26:55.025Z,0
2016-11-11T03:27:35.568Z,0
2016-11-11T03:28:16.106Z,0
2016-11-11T03:28:56.662Z,0
2016-11-11T03:29:37.202Z,0
2016-11-11T03:30:17.755Z,0
2016-11-11T03:30:58.302Z,0
2016-11-11T03:31:38.847Z,0
2016-11-11T03:32:19.387Z,0
2016-11-11T03:32:59.935Z,0
2016-11-11T03:33:40.484Z,0
2016-11-11T03:34:21.020Z,0
2016-11-11T03:35:01.565Z,0
2016-11-11T03:35:42.109Z,0
2016-11-11T03:36:22.652Z,0
2016-11-11T03:37:03.274Z,0
2016-11-11T03:37:43.789Z,0
2016-11-11T03:38:24.327Z,0
2016-11-11T03:39:04.871Z,0
2016-11-11T03:39:45.413Z,0
2016-11-11T03:40:25.956Z,0
2016-11-11T03:41:06.498Z,0
2016-11-11T03:41:47.042Z,0
2016-11-11T03:42:27.594Z,0
2016-11-11T03:43:08.134Z,0
2016-11-11T03:43:48.672Z,0
2016-11-11T03:44:29.223Z,0
2016-11-11T03:45:09.769Z,0
2016-11-11T03:45:50.313Z,0
2016-11-11T03:46:30.858Z,0
2016-11-11T03:47:11.406Z,0
2016-11-11T03:47:51.935Z,0
2016-11-11T03:48:32.480Z,0
2016-11-11T03:49:13.030Z,0
2016-11-11T03:49:53.571Z,0
2016-11-11T03:50:34.113Z,0
2016-11-11T03:51:14.660Z,0
2016-11-11T03:51:55.210Z,0
2016-11-11T03:52:35.755Z,0
2016-11-11T03:53:16.299Z,0
2016-11-11T03:53:56.841Z,0
2016-11-11T03:54:37.384Z,0
2016-11-11T03:55:17.932Z,0
2016-11-11T03:55:58.482Z,0
2016-11-11T03:56:39.028Z,0
2016-11-11T03:57:19.576Z,0
2016-11-11T03:58:00.122Z,0
2016-11-11T03:58:40.659Z,0
2016-11-11T03:59:21.200Z,0
2016-11-11T04:00:01.740Z,0
2016-11-11T04:00:42.284Z,0
2016-11-11T04:01:22.826Z,0
2016-11-11T04:02:03.371Z,0
2016-11-11T04:02:43.920Z,0
2016-11-11T04:03:24.463Z,0
2016-11-11T04:04:05.012Z,0
2016-11-11T04:04:45.559Z,0
2016-11-11T04:05:26.101Z,0
2016-11-11T04:06:06.651Z,0
2016-11-11T04:06:47.203Z,0
2016-11-11T04:07:27.743Z,0
2016-11-11T04:08:08.292Z,0
2016-11-11T04:08:48.835Z,0
2016-11-11T04:09:29.374Z,0
2016-11-11T04:10:09.923Z,4
2016-11-11T04:10:50.464Z,4
2016-11-11T04:11:31.008Z,0
2016-11-11T04:12:11.575Z,0
2016-11-11T04:12:52.108Z,0
2016-11-11T04:13:32.831Z,0
2016-11-11T04:14:13.379Z,0
2016-11-11T04:14:53.921Z,0
2016-11-11T04:15:34.458Z,0
2016-11-11T04:16:15.006Z,0
2016-11-11T04:16:55.555Z,0
2016-11-11T04:17:36.099Z,0
2016-11-11T04:18:16.647Z,0
2016-11-11T04:18:57.162Z,0
2016-11-11T04:19:37.705Z,0
2016-11-11T04:20:18.249Z,0
2016-11-11T04:20:58.797Z,0
2016-11-11T04:21:39.339Z,0
2016-11-11T04:22:19.886Z,0
2016-11-11T04:23:00.437Z,0
2016-11-11T04:23:40.984Z,0
2016-11-11T04:24:21.525Z,0
2016-11-11T04:25:02.069Z,0
2016-11-11T04:25:42.614Z,0
2016-11-11T04:26:23.160Z,0
2016-11-11T04:27:03.707Z,0
2016-11-11T04:27:44.248Z,0
2016-11-11T04:28:24.797Z,0
2016-11-11T04:29:05.347Z,0
2016-11-11T04:29:45.897Z,0
2016-11-11T04:30:26.438Z,0
2016-11-11T04:31:06.982Z,0
2016-11-11T04:31:47.527Z,0
2016-11-11T04:32:28.072Z,0
2016-11-11T04:33:08.621Z,0
2016-11-11T04:33:49.164Z,0
2016-11-11T04:34:29.713Z,0
2016-11-11T04:35:10.262Z,8
2016-11-11T04:35:50.809Z,4
2016-11-11T04:36:31.355Z,4
2016-11-11T04:37:11.893Z,4
2016-11-11T04:37:52.440Z,4
2016-11-11T04:38:32.990Z,4
2016-11-11T04:39:13.543Z,4
2016-11-11T04:39:54.081Z,4
2016-11-11T04:40:34.633Z,4
2016-11-11T04:41:15.181Z,4
2016-11-11T04:41:55.728Z,4
2016-11-11T04:42:36.275Z,4
2016-11-11T04:43:16.822Z,4
2016-11-11T04:43:57.364Z,4
2016-11-11T04:44:37.908Z,4
2016-11-11T04:45:18.457Z,4
2016-11-11T04:45:58.999Z,4
2016-11-11T04:46:39.543Z,4
2016-11-11T04:47:20.088Z,4
2016-11-11T04:48:00.634Z,4
2016-11-11T04:48:41.192Z,4
2016-11-11T04:49:21.737Z,4
2016-11-11T04:50:02.280Z,4
2016-11-11T04:50:42.828Z,4
2016-11-11T04:51:23.378Z,4
2016-11-11T04:52:03.922Z,4
2016-11-11T04:52:44.465Z,4
2016-11-11T04:53:25.011Z,4
2016-11-11T04:54:05.560Z,4
2016-11-11T04:54:46.104Z,4
2016-11-11T04:55:26.654Z,4
2016-11-11T04:56:07.245Z,4
2016-11-11T04:56:47.793Z,4
2016-11-11T04:57:28.338Z,4
2016-11-11T04:58:08.885Z,4
2016-11-11T04:58:49.442Z,4
2016-11-11T04:59:29.991Z,4
2016-11-11T05:00:10.544Z,4
2016-11-11T05:00:51.158Z,4
2016-11-11T05:01:31.836Z,4
2016-11-11T05:02:12.365Z,4
2016-11-11T05:02:52.923Z,4
2016-11-11T05:03:33.476Z,4
2016-11-11T05:04:14.019Z,4
2016-11-11T05:04:54.579Z,4
2016-11-11T05:05:35.182Z,4
2016-11-11T05:06:15.732Z,4
2016-11-11T05:06:56.275Z,4
2016-11-11T05:07:36.825Z,4
2016-11-11T05:08:17.363Z,4
2016-11-11T05:08:57.910Z,4
2016-11-11T05:09:38.461Z,4
2016-11-11T05:10:19.009Z,4
2016-11-11T05:10:59.559Z,4
2016-11-11T05:11:40.107Z,4
2016-11-11T05:12:20.651Z,4
2016-11-11T05:13:01.194Z,4
2016-11-11T05:13:41.743Z,4
2016-11-11T05:14:22.306Z,4
2016-11-11T05:15:02.858Z,4
2016-11-11T05:15:43.406Z,4
2016-11-11T05:16:23.956Z,4
2016-11-11T05:17:04.535Z,4
2016-11-11T05:17:45.142Z,4
2016-11-11T05:18:25.666Z,4
2016-11-11T05:19:06.212Z,4
2016-11-11T05:19:46.748Z,4
2016-11-11T05:20:27.280Z,4
2016-11-11T05:21:07.826Z,4
2016-11-11T05:21:48.352Z,4
2016-11-11T05:22:28.888Z,4
2016-11-11T05:23:09.416Z,4
2016-11-11T05:23:49.974Z,8
2016-11-11T05:24:30.511Z,8
2016-11-11T05:25:11.132Z,8
2016-11-11T05:25:51.679Z,8
2016-11-11T05:26:32.222Z,8
2016-11-11T05:27:12.760Z,8
2016-11-11T05:27:53.307Z,12
2016-11-11T05:28:33.847Z,12
2016-11-11T05:29:14.397Z,12
2016-11-11T05:29:54.961Z,12
2016-11-11T05:30:35.502Z,12
2016-11-11T05:31:16.047Z,12
2016-11-11T05:31:56.596Z,12
2016-11-11T05:32:37.138Z,12
2016-11-11T05:33:17.679Z,12
2016-11-11T05:33:58.229Z,12
2016-11-11T05:34:38.767Z,12
2016-11-11T05:35:19.310Z,8
2016-11-11T05:35:59.862Z,12
2016-11-11T05:36:40.419Z,12
2016-11-11T05:37:20.962Z,8
2016-11-11T05:38:01.515Z,8
2016-11-11T05:38:42.108Z,12
2016-11-11T05:39:22.727Z,8
2016-11-11T05:40:03.348Z,8
2016-11-11T05:40:43.942Z,8
2016-11-11T05:41:24.518Z,8
2016-11-11T05:42:05.085Z,8
2016-11-11T05:42:45.636Z,8
2016-11-11T05:43:26.176Z,8
2016-11-11T05:44:06.720Z,8
2016-11-11T05:44:47.265Z,12
2016-11-11T05:45:27.837Z,8
2016-11-11T05:46:08.385Z,12
2016-11-11T05:46:48.925Z,8
2016-11-11T05:47:29.475Z,12
2016-11-11T05:48:10.020Z,12
2016-11-11T05:48:50.565Z,12
2016-11-11T05:49:31.106Z,12
2016-11-11T05:50:11.650Z,8
2016-11-11T05:50:52.194Z,8
2016-11-11T05:51:32.740Z,8
2016-11-11T05:52:13.286Z,8
2016-11-11T05:52:53.825Z,8
2016-11-11T05:53:34.364Z,8
2016-11-11T05:54:14.915Z,8
2016-11-11T05:54:55.468Z,12
2016-11-11T05:55:36.018Z,12
2016-11-11T05:56:16.569Z,12
2016-11-11T05:56:57.119Z,12
2016-11-11T05:57:37.665Z,12
2016-11-11T05:58:18.212Z,12
2016-11-11T05:58:58.777Z,12
2016-11-11T05:59:39.326Z,12
2016-11-11T06:00:19.878Z,12
2016-11-11T06:01:00.429Z,12
2016-11-11T06:01:40.978Z,12
2016-11-11T06:02:21.529Z,12
2016-11-11T06:03:02.084Z,12
2016-11-11T06:03:42.659Z,12
2016-11-11T06:04:23.210Z,12
2016-11-11T06:05:03.753Z,12
2016-11-11T06:07:23.091Z,12
2016-11-11T06:08:03.648Z,12
2016-11-11T06:08:44.192Z,12
2016-11-11T06:09:24.767Z,12
2016-11-11T06:10:05.310Z,12
2016-11-11T06:10:45.844Z,12
2016-11-11T06:11:26.396Z,8
2016-11-11T06:12:06.946Z,12
2016-11-11T06:12:47.489Z,12
2016-11-11T06:13:28.036Z,8
2016-11-11T06:14:08.583Z,8
2016-11-11T06:14:49.121Z,8
2016-11-11T06:15:29.684Z,8
2016-11-11T06:16:10.219Z,8
2016-11-11T06:16:50.769Z,8
2016-11-11T06:17:31.306Z,12
2016-11-11T06:18:11.879Z,12
2016-11-11T06:18:52.424Z,8
2016-11-11T06:19:32.972Z,8
2016-11-11T06:20:13.511Z,8
2016-11-11T06:20:54.057Z,8
2016-11-11T06:21:34.603Z,8
2016-11-11T06:22:15.143Z,4
2016-11-11T06:22:55.678Z,4
2016-11-11T06:23:36.228Z,4
2016-11-11T06:24:16.771Z,4
2016-11-11T06:24:57.317Z,4
2016-11-11T06:25:37.868Z,4
2016-11-11T06:26:18.419Z,4
2016-11-11T06:26:58.969Z,4
2016-11-11T06:27:39.521Z,0
2016-11-11T06:28:20.068Z,4
2016-11-11T06:29:00.622Z,4
2016-11-11T06:29:41.172Z,4
2016-11-11T06:30:21.725Z,4
2016-11-11T06:31:02.274Z,4
2016-11-11T06:31:42.819Z,4
2016-11-11T06:32:23.361Z,4
2016-11-11T06:33:03.914Z,4
2016-11-11T06:33:44.486Z,4
2016-11-11T06:34:25.038Z,4
2016-11-11T06:35:05.585Z,4
2016-11-11T06:35:46.136Z,4
2016-11-11T06:36:26.685Z,4
2016-11-11T06:37:07.232Z,4
2016-11-11T06:37:47.786Z,4
2016-11-11T06:38:28.328Z,4
2016-11-11T06:39:08.886Z,0
2016-11-11T06:39:49.439Z,0
2016-11-11T06:40:29.986Z,0
2016-11-11T06:41:10.526Z,0
2016-11-11T06:41:51.070Z,0
2016-11-11T06:42:31.619Z,0
2016-11-11T06:43:12.170Z,0
2016-11-11T06:43:52.720Z,0
2016-11-11T06:44:33.271Z,0
2016-11-11T06:45:13.822Z,0
2016-11-11T06:45:54.373Z,0
2016-11-11T06:46:34.923Z,0
2016-11-11T06:47:15.463Z,0
2016-11-11T06:47:56.014Z,0
2016-11-11T06:48:36.564Z,0
2016-11-11T06:49:17.110Z,0
2016-11-11T06:49:57.657Z,0
2016-11-11T06:50:38.195Z,0
2016-11-11T06:51:18.743Z,0
2016-11-11T06:51:59.289Z,0
2016-11-11T06:52:39.836Z,0
2016-11-11T06:53:20.385Z,0
2016-11-11T06:54:00.930Z,0
2016-11-11T06:54:41.477Z,0
2016-11-11T06:55:22.023Z,0
2016-11-11T06:56:02.569Z,0
2016-11-11T06:56:43.117Z,0
2016-11-11T06:57:23.666Z,0
2016-11-11T06:58:04.213Z,0
2016-11-11T06:58:44.763Z,0
2016-11-11T06:59:25.318Z,0
2016-11-11T07:00:05.870Z,0
2016-11-11T07:00:46.416Z,0
2016-11-11T07:01:26.957Z,0
2016-11-11T07:02:07.518Z,0
2016-11-11T07:02:48.074Z,0
2016-11-11T07:03:28.610Z,0
2016-11-11T07:04:09.165Z,0
2016-11-11T07:04:49.708Z,0
2016-11-11T07:05:30.251Z,0
2016-11-11T07:06:10.799Z,0
2016-11-11T07:06:51.350Z,0
2016-11-11T07:07:31.897Z,0
2016-11-11T07:08:12.437Z,0
2016-11-11T07:08:52.984Z,0
2016-11-11T07:09:33.534Z,0
2016-11-11T07:10:14.082Z,0
2016-11-11T07:10:54.627Z,0
2016-11-11T07:11:35.170Z,0
2016-11-11T07:12:15.721Z,0
2016-11-11T07:12:56.270Z,0
2016-11-11T07:13:36.822Z,0
2016-11-11T07:14:17.365Z,0
2016-11-11T07:14:57.893Z,0
2016-11-11T07:15:38.441Z,0
2016-11-11T07:16:18.989Z,0
2016-11-11T07:16:59.532Z,0
2016-11-11T07:17:40.083Z,0
2016-11-11T07:18:20.632Z,0
2016-11-11T07:19:01.182Z,0
2016-11-11T07:19:41.732Z,0
2016-11-11T07:20:22.270Z,0
2016-11-11T07:21:02.818Z,4
2016-11-11T07:21:43.366Z,0
2016-11-11T07:22:23.906Z,0
2016-11-11T07:23:04.469Z,0
2016-11-11T07:23:45.018Z,0
2016-11-11T07:24:25.560Z,0
2016-11-11T07:25:06.120Z,0
2016-11-11T07:25:46.656Z,0
2016-11-11T07:26:27.199Z,0
2016-11-11T07:27:07.747Z,0
2016-11-11T07:27:48.294Z,0
2016-11-11T07:28:28.838Z,0
2016-11-11T07:29:09.378Z,0
2016-11-11T07:29:49.926Z,0
2016-11-11T07:30:30.469Z,0
2016-11-11T07:31:11.014Z,0
2016-11-11T07:31:51.562Z,0
2016-11-11T07:32:32.106Z,0
2016-11-11T07:33:12.658Z,0
2016-11-11T07:33:53.202Z,0
2016-11-11T07:34:33.751Z,0
2016-11-11T07:35:14.302Z,0
2016-11-11T07:35:54.859Z,0
2016-11-11T07:36:35.409Z,0
2016-11-11T07:37:15.957Z,0
2016-11-11T07:37:56.518Z,0
2016-11-11T07:38:37.048Z,0
2016-11-11T07:39:17.587Z,0
2016-11-11T07:39:58.146Z,0
2016-11-11T07:40:38.692Z,0
2016-11-11T07:41:19.244Z,0
2016-11-11T07:41:59.794Z,0
2016-11-11T07:42:40.341Z,0
2016-11-11T07:43:20.905Z,0
2016-11-11T07:44:01.455Z,0
2016-11-11T07:44:41.995Z,0
2016-11-11T07:45:22.546Z,0
2016-11-11T07:46:03.085Z,4
2016-11-11T07:46:43.637Z,4
2016-11-11T07:47:24.183Z,4
2016-11-11T07:48:04.734Z,4
2016-11-11T07:48:45.285Z,4
2016-11-11T07:49:25.836Z,4
2016-11-11T07:50:06.387Z,4
2016-11-11T07:50:46.936Z,4
2016-11-11T07:51:27.482Z,4
2016-11-11T07:52:08.029Z,4
2016-11-11T07:52:48.569Z,4
2016-11-11T07:53:29.117Z,4
2016-11-11T07:54:09.647Z,4
2016-11-11T07:54:50.199Z,4
2016-11-11T07:55:30.743Z,0
2016-11-11T07:56:11.294Z,4
2016-11-11T07:56:51.828Z,0
2016-11-11T07:57:32.378Z,0
2016-11-11T07:58:12.929Z,0
2016-11-11T07:58:53.487Z,0
2016-11-11T07:59:34.033Z,4
2016-11-11T08:00:14.581Z,4
2016-11-11T08:00:55.131Z,4
2016-11-11T08:01:35.682Z,4
2016-11-11T08:02:16.235Z,4
2016-11-11T08:02:56.787Z,4
2016-11-11T08:03:37.418Z,4
2016-11-11T08:04:17.955Z,4
2016-11-11T08:04:58.505Z,4
2016-11-11T08:05:39.046Z,4
2016-11-11T08:06:19.586Z,4
2016-11-11T08:07:00.133Z,4
2016-11-11T08:07:40.684Z,4
2016-11-11T08:08:21.224Z,4
2016-11-11T08:09:01.767Z,8
2016-11-11T08:09:42.317Z,4
2016-11-11T08:10:22.858Z,8
2016-11-11T08:11:03.408Z,12
2016-11-11T08:11:43.949Z,8
2016-11-11T08:12:24.503Z,12
2016-11-11T08:13:05.054Z,8
2016-11-11T08:13:45.600Z,12
2016-11-11T08:14:26.149Z,12
2016-11-11T08:15:06.702Z,12
2016-11-11T08:15:47.251Z,12
2016-11-11T08:16:27.802Z,12
2016-11-11T08:17:08.352Z,12
2016-11-11T08:17:48.904Z,12
2016-11-11T08:18:29.455Z,12
2016-11-11T08:19:09.996Z,12
2016-11-11T08:19:50.546Z,12
2016-11-11T08:20:31.091Z,12
2016-11-11T08:21:11.643Z,12
2016-11-11T08:21:52.189Z,12
2016-11-11T08:22:32.740Z,12
2016-11-11T08:23:13.290Z,12
2016-11-11T08:23:53.838Z,12
2016-11-11T08:24:34.392Z,12
2016-11-11T08:25:14.940Z,12
2016-11-11T08:25:55.478Z,12
2016-11-11T08:26:36.027Z,12
2016-11-11T08:27:16.576Z,12
2016-11-11T08:27:57.122Z,16
2016-11-11T08:28:37.669Z,16
2016-11-11T08:29:18.210Z,12
2016-11-11T08:29:58.762Z,12
2016-11-11T08:30:39.301Z,16
2016-11-11T08:31:19.852Z,16
2016-11-11T08:32:00.394Z,12
2016-11-11T08:32:40.943Z,12
2016-11-11T08:33:21.494Z,12
2016-11-11T08:34:02.046Z,8
2016-11-11T08:34:42.591Z,12
2016-11-11T08:35:23.138Z,8
2016-11-11T08:36:03.684Z,8
2016-11-11T08:36:44.230Z,8
2016-11-11T08:37:24.822Z,8
2016-11-11T08:38:05.369Z,8
2016-11-11T08:38:45.913Z,12
2016-11-11T08:39:26.492Z,12
2016-11-11T08:40:07.023Z,16
2016-11-11T08:40:47.575Z,16
2016-11-11T08:41:28.126Z,16
2016-11-11T08:42:08.679Z,16
2016-11-11T08:42:49.220Z,16
2016-11-11T08:43:29.758Z,16
2016-11-11T08:44:10.303Z,16
2016-11-11T08:44:50.851Z,16
2016-11-11T08:45:31.402Z,12
2016-11-11T08:46:11.953Z,16
2016-11-11T08:46:52.501Z,12
2016-11-11T08:47:33.047Z,16
2016-11-11T08:48:13.597Z,16
2016-11-11T08:48:54.145Z,16
2016-11-11T08:49:34.697Z,16
2016-11-11T08:50:15.249Z,16
2016-11-11T08:50:55.794Z,16
2016-11-11T08:51:36.345Z,16
2016-11-11T08:52:16.894Z,16
2016-11-11T08:52:57.447Z,16
2016-11-11T08:53:37.995Z,20
2016-11-11T08:54:18.548Z,16
2016-11-11T08:54:59.101Z,16
2016-11-11T08:55:39.654Z,16
2016-11-11T08:56:20.202Z,16
2016-11-11T08:57:00.753Z,20
2016-11-11T08:57:41.330Z,20
2016-11-11T08:58:21.868Z,24
2016-11-11T08:59:02.415Z,24
2016-11-11T08:59:42.960Z,24
2016-11-11T09:00:23.511Z,28
2016-11-11T09:01:04.065Z,32
2016-11-11T09:01:44.613Z,36
2016-11-11T09:02:25.162Z,32
2016-11-11T09:03:05.715Z,28
2016-11-11T09:03:46.260Z,28
2016-11-11T09:04:26.813Z,20
2016-11-11T09:05:07.368Z,20
2016-11-11T09:05:47.918Z,16
2016-11-11T09:06:28.467Z,20
2016-11-11T09:07:09.021Z,20
2016-11-11T09:07:49.567Z,20
2016-11-11T09:08:30.110Z,20
2016-11-11T09:09:10.660Z,20
2016-11-11T09:09:51.211Z,20
2016-11-11T09:10:31.758Z,16
2016-11-11T09:11:12.310Z,16
2016-11-11T09:11:52.853Z,16
2016-11-11T09:12:33.401Z,16
2016-11-11T09:13:13.954Z,16
2016-11-11T09:13:54.494Z,16
2016-11-11T09:14:35.054Z,20
2016-11-11T09:15:15.604Z,20
2016-11-11T09:15:56.155Z,24
2016-11-11T09:16:36.706Z,24
2016-11-11T09:17:17.254Z,24
2016-11-11T09:17:57.807Z,24
2016-11-11T09:18:38.359Z,24
2016-11-11T09:19:18.911Z,24
2016-11-11T09:19:59.461Z,28
2016-11-11T09:20:40.012Z,28
2016-11-11T09:21:20.565Z,24
2016-11-11T09:22:01.114Z,24
2016-11-11T09:22:41.665Z,24
2016-11-11T09:23:22.212Z,24
2016-11-11T09:24:02.764Z,28
2016-11-11T09:24:43.316Z,28
2016-11-11T09:25:23.868Z,28
2016-11-11T09:26:04.418Z,28
2016-11-11T09:26:44.966Z,28
2016-11-11T09:27:25.520Z,28
2016-11-11T09:28:06.069Z,28
2016-11-11T09:28:46.621Z,32
2016-11-11T09:29:27.171Z,32
2016-11-11T09:30:07.723Z,28
2016-11-11T09:30:48.283Z,32
2016-11-11T09:31:28.826Z,32
2016-11-11T09:32:09.376Z,36
2016-11-11T09:32:49.927Z,32
2016-11-11T09:33:30.477Z,32
2016-11-11T09:34:11.027Z,32
2016-11-11T09:34:51.578Z,32
2016-11-11T09:35:32.121Z,32
2016-11-11T09:36:12.681Z,32
2016-11-11T09:36:53.232Z,32
2016-11-11T09:37:33.824Z,28
2016-11-11T09:38:14.375Z,32
2016-11-11T09:38:54.927Z,28
2016-11-11T09:39:35.478Z,36
2016-11-11T09:40:16.029Z,36
2016-11-11T09:40:56.578Z,36
2016-11-11T09:41:37.137Z,36
2016-11-11T09:42:17.694Z,36
2016-11-11T09:42:58.222Z,36
2016-11-11T09:43:38.768Z,36
2016-11-11T09:44:19.319Z,32
2016-11-11T09:44:59.867Z,36
2016-11-11T09:45:40.410Z,32
2016-11-11T09:46:20.961Z,28
2016-11-11T09:47:01.513Z,24
2016-11-11T09:47:42.064Z,24
2016-11-11T09:48:22.613Z,24
2016-11-11T09:49:03.160Z,24
2016-11-11T09:49:43.708Z,24
2016-11-11T09:50:24.251Z,24
2016-11-11T09:51:04.799Z,24
2016-11-11T09:51:45.348Z,20
2016-11-11T09:52:25.896Z,24
2016-11-11T09:53:06.446Z,24
2016-11-11T09:53:46.997Z,28
2016-11-11T09:54:27.549Z,24
2016-11-11T09:55:08.099Z,28
2016-11-11T09:55:48.638Z,24
2016-11-11T09:56:29.187Z,24
2016-11-11T09:57:09.738Z,28
2016-11-11T09:57:50.339Z,28
2016-11-11T09:58:30.886Z,28
2016-11-11T09:59:11.435Z,32
2016-11-11T09:59:51.983Z,28
2016-11-11T10:00:32.534Z,32
2016-11-11T10:01:13.084Z,32
2016-11-11T10:01:53.637Z,32
2016-11-11T10:02:34.187Z,32
2016-11-11T10:03:14.737Z,32
2016-11-11T10:03:55.308Z,32
2016-11-11T10:04:35.838Z,36
2016-11-11T10:05:16.390Z,36
2016-11-11T10:05:56.943Z,36
2016-11-11T10:06:37.494Z,44
2016-11-11T10:07:18.045Z,48
2016-11-11T10:07:58.604Z,44
2016-11-11T10:08:39.142Z,52
2016-11-11T10:09:19.695Z,64
2016-11-11T10:10:00.246Z,76
2016-11-11T10:10:40.781Z,92
2016-11-11T10:11:21.334Z,112
2016-11-11T10:12:01.927Z,140
2016-11-11T10:12:42.472Z,160
2016-11-11T10:13:23.018Z,156
2016-11-11T10:14:03.569Z,140
2016-11-11T10:14:44.115Z,136
2016-11-11T10:15:24.666Z,136